Time;durP1;ratioP1;P1;durP2;ratioP2;P2;SDS_P1;SDS_P2;PMS_P1;PMS_P2;Temp;Humidity;BMP_temperature;BMP_pressure;BME280_temperature;BME280_humidity;BME280_pressure;Samples;Min_cycle;Max_cycle;Signal;HPM_P1;HPM_P2
2022/12/19 00:01:04;;;;;;;25.93;12.77;;;;;;;42.03;36.98;100890.28;4959320;28;20476;-72
2022/12/19 00:03:30;;;;;;;23.30;14.47;;;;;;;41.90;37.10;100880.47;4968933;28;20489;-72
2022/12/19 00:06:00;;;;;;;23.10;14.83;;;;;;;41.91;37.03;100886.72;4956017;28;20429;-69
2022/12/19 00:08:26;;;;;;;25.67;14.03;;;;;;;42.00;36.84;100879.28;4957846;29;20406;-70
2022/12/19 00:10:59;;;;;;;19.33;13.27;;;;;;;41.97;37.11;100885.38;4971983;28;20423;-69
2022/12/19 00:13:26;;;;;;;29.23;14.63;;;;;;;41.97;37.16;100890.81;4956120;29;20424;-70
2022/12/19 00:15:52;;;;;;;26.67;14.63;;;;;;;41.95;37.19;100882.19;4955879;28;20423;-69
2022/12/19 00:18:18;;;;;;;19.00;13.97;;;;;;;41.95;37.23;100876.75;4956021;29;20458;-69
2022/12/19 00:20:44;;;;;;;22.53;14.20;;;;;;;42.08;37.12;100881.13;4954891;29;20442;-70
2022/12/19 00:23:10;;;;;;;24.50;14.67;;;;;;;42.07;36.98;100879.53;4957056;28;20403;-70
2022/12/19 00:25:36;;;;;;;28.77;15.17;;;;;;;42.03;36.75;100884.03;4955634;28;20446;-69
2022/12/19 00:28:03;;;;;;;19.23;12.43;;;;;;;42.05;36.63;100882.59;4955681;28;20788;-70
2022/12/19 00:30:29;;;;;;;29.50;14.50;;;;;;;42.09;36.96;100894.41;4971709;28;20421;-69
2022/12/19 00:32:55;;;;;;;20.47;14.67;;;;;;;41.92;37.10;100893.75;4962463;28;20502;-69
2022/12/19 00:35:21;;;;;;;31.00;12.60;;;;;;;42.02;37.01;100883.25;4965533;28;20560;-70
2022/12/19 00:37:47;;;;;;;22.30;14.30;;;;;;;42.03;37.08;100889.50;4974977;28;20295;-70
2022/12/19 00:40:13;;;;;;;24.03;13.73;;;;;;;42.03;37.09;100879.38;4974891;28;20547;-69
2022/12/19 00:42:39;;;;;;;16.63;12.80;;;;;;;41.89;37.26;100894.44;4974867;28;21018;-70
2022/12/19 00:45:05;;;;;;;25.87;14.20;;;;;;;41.74;37.47;100884.88;4974854;28;20418;-69
2022/12/19 00:47:31;;;;;;;30.57;13.50;;;;;;;41.95;37.24;100882.19;4974734;28;20418;-72
2022/12/19 00:49:57;;;;;;;19.07;13.47;;;;;;;42.04;37.11;100880.97;4973786;28;20865;-70
2022/12/19 00:52:23;;;;;;;17.30;13.10;;;;;;;42.19;36.49;100884.25;4974658;28;20453;-70
2022/12/19 00:54:49;;;;;;;26.47;12.60;;;;;;;42.14;36.60;100877.84;4958525;28;20410;-70
2022/12/19 00:57:15;;;;;;;19.40;14.30;;;;;;;42.07;36.67;100874.88;4974662;28;20461;-70
2022/12/19 00:59:41;;;;;;;23.37;14.07;;;;;;;42.03;36.61;100870.41;4973372;28;20793;-72
2022/12/19 01:02:07;;;;;;;27.97;15.80;;;;;;;42.01;36.78;100865.31;4974819;28;20923;-70
2022/12/19 01:04:33;;;;;;;23.20;14.20;;;;;;;41.84;37.44;100868.97;4976245;28;20754;-70
2022/12/19 01:06:59;;;;;;;32.50;17.53;;;;;;;41.85;37.13;100861.59;4973570;28;20556;-69
2022/12/19 01:09:25;;;;;;;26.10;17.40;;;;;;;41.96;37.13;100860.06;4974235;28;20426;-70
2022/12/19 01:14:35;;;;;;;29.63;17.90;;;;;;;41.69;37.57;100858.66;4975719;28;20759;-70
2022/12/19 01:17:01;;;;;;;34.03;24.43;;;;;;;41.58;37.82;100858.25;4974076;28;20414;-70
2022/12/19 01:19:27;;;;;;;36.60;24.70;;;;;;;41.62;37.53;100858.41;4975759;28;20849;-72
2022/12/19 01:21:53;;;;;;;37.10;27.00;;;;;;;41.40;37.58;100851.34;4974265;28;20445;-72
2022/12/19 01:24:19;;;;;;;29.77;22.70;;;;;;;41.45;37.81;100853.88;4972833;28;20450;-73
2022/12/19 01:26:45;;;;;;;39.90;24.53;;;;;;;41.62;37.66;100847.50;4978009;28;20511;-70
2022/12/19 01:29:11;;;;;;;28.83;23.90;;;;;;;41.66;37.66;100853.88;4954553;29;20415;-69
2022/12/19 01:31:37;;;;;;;39.27;25.97;;;;;;;41.64;37.57;100853.41;4988811;28;20461;-69
2022/12/19 01:34:03;;;;;;;37.93;27.13;;;;;;;41.29;37.88;100840.00;4975050;28;20403;-70
2022/12/19 01:36:29;;;;;;;47.67;27.63;;;;;;;41.41;37.91;100842.03;4973654;28;20439;-70
2022/12/19 01:38:57;;;;;;;38.43;28.70;;;;;;;41.36;37.80;100836.78;4972572;28;20549;-69
2022/12/19 01:41:23;;;;;;;59.20;34.20;;;;;;;41.19;38.07;100825.97;4973581;28;20881;-72
2022/12/19 01:43:58;;;;;;;49.17;33.10;;;;;;;41.24;38.25;100823.06;4973713;28;20422;-70
2022/12/19 01:46:46;;;;;;;44.63;32.80;;;;;;;41.16;38.31;100816.56;4973651;28;20442;-70
2022/12/19 01:49:45;;;;;;;54.50;34.63;;;;;;;41.39;37.88;100814.38;4973563;28;20488;-69
2022/12/19 01:52:12;;;;;;;54.03;35.60;;;;;;;41.49;37.68;100821.31;4985711;28;20415;-70
2022/12/19 01:54:40;;;;;;;44.43;34.50;;;;;;;41.49;37.29;100813.16;4973071;28;20533;-70
2022/12/19 01:57:12;;;;;;;43.00;30.50;;;;;;;41.01;38.19;100812.50;4973397;28;20497;-69
2022/12/19 01:59:58;;;;;;;38.27;28.67;;;;;;;40.89;38.42;100806.13;4974295;28;20457;-70
2022/12/19 02:02:33;;;;;;;34.97;28.40;;;;;;;41.00;38.00;100821.75;4970241;28;20574;-70
2022/12/19 02:05:00;;;;;;;43.13;31.20;;;;;;;41.15;37.88;100811.44;4966742;28;20978;-68
2022/12/19 02:07:27;;;;;;;41.63;32.33;;;;;;;40.55;38.62;100813.31;4972748;28;20457;-69
2022/12/19 02:09:55;;;;;;;45.30;32.53;;;;;;;40.69;38.85;100794.84;4973199;28;20410;-69
2022/12/19 02:12:23;;;;;;;40.13;33.73;;;;;;;40.79;38.30;100807.28;4971770;28;20450;-70
2022/12/19 02:14:50;;;;;;;36.37;31.00;;;;;;;40.80;38.13;100806.97;4973318;28;20435;-70
2022/12/19 02:17:32;;;;;;;37.87;30.23;;;;;;;40.68;38.73;100800.63;4971715;28;20565;-70
2022/12/19 02:20:19;;;;;;;36.53;29.17;;;;;;;40.77;38.07;100798.66;4973046;28;20513;-71
2022/12/19 02:23:09;;;;;;;38.03;28.00;;;;;;;40.89;38.18;100793.31;4972048;28;20512;-70
2022/12/19 02:25:55;;;;;;;33.50;25.90;;;;;;;40.82;38.58;100803.91;4953943;28;20439;-70
2022/12/19 02:28:36;;;;;;;47.97;32.00;;;;;;;40.65;38.59;100795.84;4955593;28;20512;-72
2022/12/19 02:31:28;;;;;;;39.20;29.23;;;;;;;40.46;38.74;100797.00;4970196;28;20470;-69
2022/12/19 02:33:59;;;;;;;41.00;30.50;;;;;;;40.32;39.44;100798.31;4972763;28;20504;-69
2022/12/19 02:36:35;;;;;;;37.83;29.07;;;;;;;40.59;38.82;100792.50;4953879;28;20570;-72
2022/12/19 02:39:07;;;;;;;44.23;30.37;;;;;;;40.09;39.72;100797.75;4953418;28;20549;-70
2022/12/19 02:41:43;;;;;;;33.13;28.93;;;;;;;40.12;39.66;100794.38;4954457;28;20470;-69
2022/12/19 02:44:22;;;;;;;45.63;32.40;;;;;;;39.58;40.14;100802.81;4953498;28;20430;-70
2022/12/19 02:46:49;;;;;;;37.13;29.87;;;;;;;40.02;39.80;100795.47;4953041;28;20872;-70
2022/12/19 02:49:15;;;;;;;37.00;29.77;;;;;;;39.95;39.99;100801.41;4953394;29;20443;-70
2022/12/19 02:51:41;;;;;;;44.87;29.60;;;;;;;40.17;39.84;100805.88;4953234;28;20449;-73
2022/12/19 02:54:09;;;;;;;42.10;29.47;;;;;;;40.45;38.89;100811.69;4953481;28;20522;-70
2022/12/19 02:56:40;;;;;;;55.67;30.57;;;;;;;40.47;38.69;100806.78;4953232;29;20540;-72
2022/12/19 02:59:11;;;;;;;40.50;31.80;;;;;;;40.61;38.72;100809.28;4951566;28;21019;-73
2022/12/19 03:01:46;;;;;;;47.20;29.30;;;;;;;40.49;39.04;100806.47;4953197;28;20446;-72
2022/12/19 03:04:41;;;;;;;43.70;30.20;;;;;;;40.41;38.54;100807.25;4953013;28;20446;-72
2022/12/19 03:07:33;;;;;;;36.27;29.57;;;;;;;39.97;39.41;100803.81;4953014;29;20811;-72
2022/12/19 03:10:22;;;;;;;33.47;25.90;;;;;;;40.09;39.26;100809.44;4952763;28;20431;-70
2022/12/19 03:13:00;;;;;;;36.93;25.17;;;;;;;40.19;39.20;100806.34;4953215;29;20415;-69
2022/12/19 03:15:27;;;;;;;35.70;27.17;;;;;;;40.11;39.15;100815.31;4954256;28;20442;-69
2022/12/19 03:18:00;;;;;;;39.20;27.13;;;;;;;40.05;39.37;100813.09;4953003;29;20463;-68
2022/12/19 03:20:37;;;;;;;34.43;24.97;;;;;;;39.93;39.20;100806.38;4953197;28;20464;-69
2022/12/19 03:23:02;;;;;;;35.93;25.47;;;;;;;39.52;39.99;100804.09;4953772;28;20426;-69
2022/12/19 03:25:31;;;;;;;35.13;26.70;;;;;;;39.97;39.60;100806.53;4957115;29;20494;-70
2022/12/19 03:28:04;;;;;;;30.27;24.10;;;;;;;40.21;38.90;100815.00;4956450;28;20466;-69
2022/12/19 03:30:33;;;;;;;30.80;25.03;;;;;;;40.14;39.22;100817.38;4956868;29;20415;-69
2022/12/19 03:33:01;;;;;;;40.03;26.13;;;;;;;40.24;38.90;100816.25;4956548;28;20585;-70
2022/12/19 03:35:31;;;;;;;33.20;23.97;;;;;;;39.94;39.03;100807.16;4956584;28;20467;-69
2022/12/19 03:38:01;;;;;;;41.67;28.73;;;;;;;39.90;39.58;100811.63;4956094;28;20939;-71
2022/12/19 03:40:29;;;;;;;31.80;24.77;;;;;;;39.86;39.28;100816.91;4938439;28;20432;-69
2022/12/19 03:43:10;;;;;;;31.60;25.40;;;;;;;39.59;39.67;100817.19;4937523;29;20788;-69
2022/12/19 03:45:55;;;;;;;41.10;26.20;;;;;;;39.68;39.96;100818.84;4956742;28;20450;-72
2022/12/19 03:48:37;;;;;;;32.67;23.70;;;;;;;40.06;39.03;100810.06;4956447;28;20477;-70
2022/12/19 03:51:09;;;;;;;30.97;23.47;;;;;;;39.71;39.69;100820.91;4957579;28;20441;-72
2022/12/19 03:53:40;;;;;;;38.80;25.23;;;;;;;39.52;40.08;100830.44;4958002;29;20438;-70
2022/12/19 03:56:20;;;;;;;33.00;25.03;;;;;;;39.90;39.60;100833.34;4956248;28;21010;-72
2022/12/19 03:58:52;;;;;;;32.00;22.30;;;;;;;39.69;39.72;100838.66;4956182;29;20490;-69
2022/12/19 04:01:20;;;;;;;26.50;20.57;;;;;;;39.09;40.68;100834.66;4956049;28;20908;-70
2022/12/19 04:03:46;;;;;;;32.80;24.40;;;;;;;39.62;39.74;100833.69;4956420;29;20489;-70
2022/12/19 04:06:13;;;;;;;28.17;24.03;;;;;;;39.69;39.48;100834.00;4955454;29;20451;-70
2022/12/19 04:08:41;;;;;;;29.30;21.90;;;;;;;39.41;40.28;100838.91;4956305;28;20430;-70
2022/12/19 04:14:36;;;;;;;32.23;24.20;;;;;;;38.92;41.12;100848.19;4942062;29;20423;-69
2022/12/19 04:17:39;;;;;;;36.17;26.30;;;;;;;38.83;41.20;100853.53;4956036;28;20848;-69
2022/12/19 04:20:12;;;;;;;35.20;24.83;;;;;;;39.03;40.96;100852.19;4955776;28;20549;-69
2022/12/19 04:22:43;;;;;;;36.30;24.10;;;;;;;39.49;40.30;100864.47;4957664;28;20395;-69
2022/12/19 04:25:28;;;;;;;35.03;25.70;;;;;;;39.26;40.38;100863.78;4955497;28;21003;-70
2022/12/19 04:28:04;;;;;;;31.17;23.83;;;;;;;39.58;39.78;100865.28;4956064;29;20427;-69
2022/12/19 04:30:31;;;;;;;37.70;25.67;;;;;;;39.50;39.67;100863.34;4956962;28;21030;-69
2022/12/19 04:32:58;;;;;;;36.93;25.40;;;;;;;39.16;40.61;100867.56;4957190;29;20550;-69
2022/12/19 04:35:24;;;;;;;38.87;29.83;;;;;;;38.89;41.05;100867.78;4968052;28;20469;-68
2022/12/19 04:37:51;;;;;;;40.53;28.80;;;;;;;39.13;40.79;100867.38;4995426;28;20975;-69
2022/12/19 04:40:17;;;;;;;42.50;29.27;;;;;;;38.94;41.21;100857.59;4978178;28;20424;-72
2022/12/19 04:42:43;;;;;;;47.10;30.17;;;;;;;38.88;41.17;100866.16;4977110;28;20456;-69
2022/12/19 04:45:10;;;;;;;45.10;29.73;;;;;;;39.14;40.90;100872.47;4978110;28;20976;-69
2022/12/19 04:47:36;;;;;;;45.00;27.30;;;;;;;39.20;40.81;100873.19;4976746;28;20564;-69
2022/12/19 04:50:03;;;;;;;43.40;26.30;;;;;;;39.27;40.83;100878.13;4985201;28;20516;-70
2022/12/19 04:52:29;;;;;;;47.93;26.57;;;;;;;39.63;39.93;100884.16;4993400;28;20417;-70
2022/12/19 04:54:55;;;;;;;52.10;30.83;;;;;;;39.21;40.57;100882.91;4990916;28;20997;-69
2022/12/19 04:57:21;;;;;;;41.23;29.53;;;;;;;39.54;40.16;100879.81;4981105;28;20452;-69
2022/12/19 04:59:47;;;;;;;46.60;27.93;;;;;;;39.09;40.90;100880.75;4982977;28;20852;-69
2022/12/19 05:02:13;;;;;;;50.00;28.77;;;;;;;39.47;40.36;100874.81;4977524;28;20433;-70
2022/12/19 05:04:39;;;;;;;42.47;29.20;;;;;;;39.50;39.99;100880.44;4994299;28;20456;-69
2022/12/19 05:07:05;;;;;;;36.90;27.63;;;;;;;38.95;41.23;100880.88;4977511;28;20433;-69
2022/12/19 05:09:31;;;;;;;41.33;26.30;;;;;;;39.14;40.89;100888.75;4977754;28;20432;-69
2022/12/19 05:11:57;;;;;;;47.77;30.27;;;;;;;39.63;39.99;100888.78;4976370;28;20461;-69
2022/12/19 05:14:23;;;;;;;44.80;27.93;;;;;;;39.42;40.15;100889.38;4977430;28;20433;-69
2022/12/19 05:16:49;;;;;;;42.97;26.90;;;;;;;39.72;39.59;100887.69;4974859;28;20437;-69
2022/12/19 05:19:15;;;;;;;40.03;25.17;;;;;;;39.13;40.73;100889.09;4974096;28;20485;-70
2022/12/19 05:21:41;;;;;;;36.10;25.80;;;;;;;39.60;39.89;100894.84;4984209;28;20926;-69
2022/12/19 05:24:07;;;;;;;50.37;25.27;;;;;;;39.49;39.95;100897.03;4977101;28;20457;-70
2022/12/19 05:26:33;;;;;;;36.97;26.33;;;;;;;38.97;40.93;100894.13;4977115;28;20885;-70
2022/12/19 05:28:59;;;;;;;34.73;26.60;;;;;;;39.55;39.91;100893.06;4973408;28;20430;-70
2022/12/19 05:31:25;;;;;;;45.17;25.40;;;;;;;39.51;39.54;100892.09;4962086;28;20520;-71
2022/12/19 05:33:51;;;;;;;36.77;24.17;;;;;;;39.61;39.68;100894.53;4962682;28;20444;-70
2022/12/19 05:36:17;;;;;;;37.07;23.10;;;;;;;39.60;39.45;100903.81;4985707;28;20477;-70
2022/12/19 05:38:43;;;;;;;35.30;22.63;;;;;;;38.64;41.11;100902.53;4969086;28;20541;-73
2022/12/19 05:41:15;;;;;;;36.50;23.50;;;;;;;39.23;40.34;100903.22;4964693;28;20458;-71
2022/12/19 05:43:50;;;;;;;49.87;25.07;;;;;;;38.92;40.45;100897.78;4973482;28;20421;-70
2022/12/19 05:46:16;;;;;;;59.20;28.20;;;;;;;38.97;40.86;100894.91;4970751;28;20495;-70
2022/12/19 05:48:42;;;;;;;45.23;26.80;;;;;;;38.74;41.12;100901.53;4971493;28;20464;-71
2022/12/19 05:51:08;;;;;;;39.50;25.23;;;;;;;39.03;40.79;100913.78;4964542;28;20434;-72
2022/12/19 05:53:35;;;;;;;36.47;25.60;;;;;;;39.05;40.25;100923.22;4956812;28;20422;-72
2022/12/19 05:56:10;;;;;;;41.27;25.43;;;;;;;39.23;40.10;100919.47;4974266;28;20508;-71
2022/12/19 05:58:37;;;;;;;40.43;26.63;;;;;;;39.11;40.20;100927.38;4978383;28;20456;-69
2022/12/19 06:01:09;;;;;;;51.03;26.20;;;;;;;39.50;39.56;100928.50;4992558;28;20448;-70
2022/12/19 06:03:35;;;;;;;45.00;29.30;;;;;;;39.26;39.86;100928.09;4993310;28;20457;-69
2022/12/19 06:06:07;;;;;;;49.50;27.37;;;;;;;39.39;39.49;100933.41;4966065;28;20529;-71
2022/12/19 06:08:34;;;;;;;45.73;26.50;;;;;;;39.63;39.31;100937.66;4972969;28;20448;-72
2022/12/19 06:11:01;;;;;;;46.33;26.53;;;;;;;39.63;39.11;100935.75;4965949;28;20472;-72
2022/12/19 06:13:28;;;;;;;51.13;25.50;;;;;;;39.20;39.45;100944.50;4980190;28;20998;-70
2022/12/19 06:16:06;;;;;;;39.33;24.70;;;;;;;39.07;39.93;100941.88;4956136;28;20927;-69
2022/12/19 06:18:32;;;;;;;45.97;27.00;;;;;;;38.70;40.88;100947.38;4960401;28;20507;-70
2022/12/19 06:21:00;;;;;;;36.53;25.10;;;;;;;38.73;40.67;100947.91;4974765;28;20475;-69
2022/12/19 06:23:27;;;;;;;46.60;28.23;;;;;;;37.82;42.62;100957.00;4963384;28;20445;-70
2022/12/19 06:25:56;;;;;;;50.30;29.07;;;;;;;37.87;42.10;100956.88;4992507;28;20471;-70
2022/12/19 06:28:23;;;;;;;37.70;28.23;;;;;;;38.62;41.54;100961.69;4978239;28;20516;-69
2022/12/19 06:30:49;;;;;;;45.23;27.73;;;;;;;39.20;40.15;100979.00;4993751;28;20478;-68
2022/12/19 06:33:15;;;;;;;43.10;27.20;;;;;;;39.35;39.33;100975.88;4986763;28;20436;-70
2022/12/19 06:35:41;;;;;;;43.67;29.27;;;;;;;39.73;38.83;100981.63;4976752;28;20548;-70
2022/12/19 06:38:07;;;;;;;43.80;27.50;;;;;;;38.37;41.07;100994.84;4999568;28;20508;-70
2022/12/19 06:43:17;;;;;;;39.00;23.77;;;;;;;38.90;39.71;101007.69;4988405;28;20448;-69
2022/12/19 06:45:43;;;;;;;34.03;21.00;;;;;;;38.56;40.45;101008.22;4975498;28;20421;-67
2022/12/19 06:48:09;;;;;;;30.43;22.83;;;;;;;39.23;39.07;101013.66;4975858;28;20413;-71
2022/12/19 06:50:35;;;;;;;44.17;21.37;;;;;;;39.07;39.55;101009.69;4966701;28;20425;-70
2022/12/19 06:53:01;;;;;;;37.27;20.03;;;;;;;38.32;40.72;101014.72;4964554;28;20433;-68
2022/12/19 06:55:27;;;;;;;32.40;22.10;;;;;;;39.26;39.25;101012.22;4968784;28;20848;-71
2022/12/19 06:57:53;;;;;;;39.63;24.47;;;;;;;39.45;38.93;101005.44;4966042;28;20446;-71
2022/12/19 07:00:20;;;;;;;43.57;25.07;;;;;;;39.21;39.27;101008.53;4968845;28;20425;-71
2022/12/19 07:02:50;;;;;;;40.50;25.67;;;;;;;39.41;38.79;101011.78;4968859;28;20487;-75
2022/12/19 07:05:17;;;;;;;36.90;22.80;;;;;;;39.82;38.05;101018.84;4977645;28;20421;-70
2022/12/19 07:07:43;;;;;;;33.37;22.33;;;;;;;39.86;37.87;101022.53;4964983;28;20437;-72
2022/12/19 07:10:09;;;;;;;35.60;24.10;;;;;;;40.02;37.68;101015.53;4973180;28;20417;-70
2022/12/19 07:12:35;;;;;;;32.30;22.53;;;;;;;38.82;39.45;101025.50;4957437;28;20415;-70
2022/12/19 07:15:01;;;;;;;47.13;23.90;;;;;;;38.53;40.35;101031.28;4961577;28;20859;-72
2022/12/19 07:17:28;;;;;;;42.03;28.37;;;;;;;39.19;39.27;101026.22;4966212;28;21077;-71
2022/12/19 07:19:56;;;;;;;37.67;27.03;;;;;;;39.41;39.20;101028.09;4966273;28;20460;-71
2022/12/19 07:22:24;;;;;;;49.43;31.97;;;;;;;39.56;38.51;101033.13;4981174;28;20427;-77
2022/12/19 07:24:51;;;;;;;51.97;31.77;;;;;;;40.12;37.68;101041.63;4968893;28;20450;-70
2022/12/19 07:27:17;;;;;;;46.00;29.43;;;;;;;40.25;37.02;101046.94;4964779;28;20452;-69
2022/12/19 07:29:42;;;;;;;36.13;26.93;;;;;;;40.06;37.54;101053.78;4979718;28;20471;-73
2022/12/19 07:32:08;;;;;;;41.80;27.00;;;;;;;40.16;37.73;101048.84;4977248;28;20433;-72
2022/12/19 07:34:34;;;;;;;45.30;27.00;;;;;;;39.90;38.05;101065.06;4971762;28;20842;-72
2022/12/19 07:37:00;;;;;;;37.57;26.07;;;;;;;40.06;37.72;101061.94;4971860;28;20429;-71
2022/12/19 07:39:26;;;;;;;30.67;25.50;;;;;;;40.06;37.77;101070.06;4961617;28;20462;-70
2022/12/19 07:41:52;;;;;;;42.53;26.67;;;;;;;40.28;37.59;101070.75;4952845;29;20438;-70
2022/12/19 07:44:18;;;;;;;43.60;30.50;;;;;;;39.84;38.37;101068.22;4952720;29;20419;-70
2022/12/19 07:46:44;;;;;;;43.50;28.10;;;;;;;40.03;38.20;101066.06;4952782;29;20608;-70
2022/12/19 07:49:10;;;;;;;41.93;29.87;;;;;;;40.01;37.82;101070.97;4960547;28;20946;-70
2022/12/19 07:51:36;;;;;;;50.50;30.90;;;;;;;39.63;38.68;101073.41;4971745;28;20416;-70
2022/12/19 07:54:02;;;;;;;49.97;27.87;;;;;;;39.52;38.97;101066.63;4971203;28;20426;-70
2022/12/19 07:56:28;;;;;;;48.57;30.33;;;;;;;40.06;37.65;101073.59;4972010;28;20456;-70
2022/12/19 07:58:54;;;;;;;47.13;30.63;;;;;;;40.24;37.25;101080.66;4966230;28;20463;-70
2022/12/19 08:01:20;;;;;;;51.60;31.93;;;;;;;39.95;37.94;101085.81;4952831;29;20470;-70
2022/12/19 08:03:46;;;;;;;54.10;34.80;;;;;;;40.18;37.28;101089.28;4952638;28;20475;-70
2022/12/19 08:06:12;;;;;;;49.13;32.60;;;;;;;40.12;38.00;101082.41;4952658;29;20431;-70
2022/12/19 08:08:38;;;;;;;42.50;29.93;;;;;;;40.49;36.87;101087.28;4956033;28;20442;-71
2022/12/19 08:11:09;;;;;;;42.23;29.43;;;;;;;40.52;36.49;101081.22;4975465;28;20849;-70
2022/12/19 08:13:36;;;;;;;41.20;27.10;;;;;;;40.74;36.54;101080.25;4959630;28;20422;-71
2022/12/19 08:16:02;;;;;;;45.80;29.77;;;;;;;40.75;35.72;101075.59;4975425;28;20951;-70
2022/12/19 08:18:29;;;;;;;41.97;29.67;;;;;;;40.87;35.50;101081.19;4973168;28;20552;-70
2022/12/19 08:20:55;;;;;;;37.77;25.70;;;;;;;40.51;35.56;101076.06;4956000;29;20437;-70
2022/12/19 08:23:20;;;;;;;43.13;27.30;;;;;;;40.83;35.18;101088.41;4956061;29;20423;-70
2022/12/19 08:25:46;;;;;;;40.60;30.40;;;;;;;40.71;35.06;101083.63;4956008;28;20451;-71
2022/12/19 08:28:12;;;;;;;44.00;29.80;;;;;;;39.85;36.71;101080.69;4955912;29;20180;-69
2022/12/19 08:30:39;;;;;;;44.10;31.07;;;;;;;40.24;36.06;101079.88;4971532;28;20427;-70
2022/12/19 08:33:05;;;;;;;41.80;27.17;;;;;;;40.40;36.29;101077.50;4971899;28;20430;-70
2022/12/19 08:35:31;;;;;;;41.43;29.27;;;;;;;40.68;35.50;101084.25;4966806;28;20890;-73
2022/12/19 08:37:57;;;;;;;53.60;27.23;;;;;;;40.13;36.48;101086.72;4974923;28;20465;-72
2022/12/19 08:40:24;;;;;;;48.70;27.63;;;;;;;40.46;36.46;101089.81;4993340;28;20984;-73
2022/12/19 08:42:50;;;;;;;67.33;36.83;;;;;;;40.65;35.86;101084.91;4994359;28;20414;-71
2022/12/19 08:45:17;;;;;;;56.80;34.57;;;;;;;40.31;35.77;101087.56;4994342;28;20476;-71
2022/12/19 08:47:44;;;;;;;43.07;31.60;;;;;;;40.37;36.02;101083.56;4994387;28;20418;-71
2022/12/19 08:50:10;;;;;;;45.47;32.50;;;;;;;40.38;35.94;101093.31;4991002;28;20422;-74
2022/12/19 08:52:37;;;;;;;46.40;31.53;;;;;;;40.09;36.16;101078.41;4974862;28;20450;-74
2022/12/19 08:55:03;;;;;;;52.40;37.33;;;;;;;40.53;35.86;101071.94;4974616;28;20471;-74
2022/12/19 08:57:29;;;;;;;53.00;34.30;;;;;;;40.03;36.60;101071.50;4974653;28;20814;-74
2022/12/19 08:59:55;;;;;;;63.50;37.20;;;;;;;40.45;36.11;101077.31;4987722;28;20437;-72
2022/12/19 09:02:21;;;;;;;45.47;32.57;;;;;;;40.44;35.94;101073.00;4985340;28;20972;-72
2022/12/19 09:04:47;;;;;;;52.30;35.13;;;;;;;40.41;35.78;101074.47;4990961;28;20913;-72
2022/12/19 09:07:13;;;;;;;52.47;33.27;;;;;;;40.39;35.43;101065.84;4990643;28;20418;-71
2022/12/19 09:09:39;;;;;;;42.17;26.90;;;;;;;40.18;35.62;101067.53;4993839;28;20429;-73
2022/12/19 09:12:05;;;;;;;37.57;29.60;;;;;;;40.37;34.89;101065.31;4994067;28;20517;-72
2022/12/19 09:14:34;;;;;;;40.93;27.90;;;;;;;39.91;35.92;101074.81;4993655;28;20524;-73
2022/12/19 09:17:00;;;;;;;54.50;30.20;;;;;;;40.57;34.74;101074.81;4993695;28;20453;-71
2022/12/19 09:19:27;;;;;;;48.07;28.20;;;;;;;40.94;33.92;101072.56;4984683;28;20494;-72
2022/12/19 09:21:53;;;;;;;44.20;24.60;;;;;;;41.03;33.37;101067.94;4973221;28;20426;-74
2022/12/19 09:24:19;;;;;;;44.37;27.63;;;;;;;41.29;33.50;101063.22;4974077;28;20871;-71
2022/12/19 09:26:45;;;;;;;49.93;28.67;;;;;;;41.26;32.91;101063.09;4974075;28;20436;-71
2022/12/19 09:29:11;;;;;;;43.07;29.77;;;;;;;41.23;32.55;101063.72;4983123;28;20541;-71
2022/12/19 09:31:37;;;;;;;37.30;24.93;;;;;;;40.95;32.92;101064.13;4993377;28;20425;-70
2022/12/19 09:34:03;;;;;;;42.33;21.43;;;;;;;41.08;31.88;101063.13;4995132;28;20476;-71
2022/12/19 09:36:29;;;;;;;42.83;25.90;;;;;;;41.23;32.22;101064.50;4993268;28;20469;-73
2022/12/19 09:38:57;;;;;;;42.37;23.73;;;;;;;40.65;31.70;101068.59;4989255;28;20466;-72
2022/12/19 09:41:50;;;;;;;34.63;24.20;;;;;;;40.65;32.29;101068.59;4973838;28;20524;-73
2022/12/19 09:44:34;;;;;;;34.73;23.07;;;;;;;41.21;31.11;101057.81;4973884;28;20402;-74
2022/12/19 09:47:04;;;;;;;35.63;23.60;;;;;;;41.47;30.93;101053.09;4973723;28;20419;-71
2022/12/19 09:49:38;;;;;;;46.97;24.33;;;;;;;41.46;31.12;101048.00;4979185;28;20419;-71
2022/12/19 09:52:16;;;;;;;38.43;19.67;;;;;;;40.73;30.30;101062.34;4989862;28;20422;-71
2022/12/19 09:55:01;;;;;;;32.97;21.77;;;;;;;40.70;30.11;101056.72;4973876;28;20522;-70
2022/12/19 09:57:46;;;;;;;33.13;21.37;;;;;;;41.08;29.25;101038.63;4973720;28;20898;-70
2022/12/19 10:00:16;;;;;;;28.17;18.20;;;;;;;40.80;28.75;101049.03;4988980;28;20442;-71
2022/12/19 10:03:04;;;;;;;40.87;22.93;;;;;;;41.38;29.29;101043.38;4992851;28;20422;-69
2022/12/19 10:05:45;;;;;;;30.13;18.10;;;;;;;41.48;28.23;101037.56;4992664;28;20520;-71
2022/12/19 10:08:23;;;;;;;38.10;21.70;;;;;;;40.83;30.31;101031.28;4993003;28;20430;-70
2022/12/19 10:10:59;;;;;;;35.20;21.20;;;;;;;41.56;29.24;101023.13;4974956;28;20417;-72
2022/12/19 10:13:56;;;;;;;34.10;22.00;;;;;;;41.37;28.40;101022.69;4973249;28;20430;-71
2022/12/19 10:16:59;;;;;;;30.40;21.80;;;;;;;42.03;28.26;101020.31;4973107;28;20465;-71
2022/12/19 10:19:34;;;;;;;28.30;19.30;;;;;;;41.45;27.57;101011.00;4980664;28;20464;-71
2022/12/19 10:22:21;;;;;;;45.70;22.03;;;;;;;41.86;27.11;101010.31;4992598;28;20880;-73
2022/12/19 10:25:19;;;;;;;33.93;19.60;;;;;;;42.02;27.38;101007.81;4992479;28;20452;-71
2022/12/19 10:27:55;;;;;;;36.50;17.83;;;;;;;41.03;26.12;100995.25;4988775;28;20782;-70
2022/12/19 10:30:22;;;;;;;35.60;19.90;;;;;;;41.04;27.50;100994.13;4977429;28;20422;-70
2022/12/19 10:33:24;;;;;;;28.30;18.80;;;;;;;41.51;26.55;100985.97;4972748;28;20422;-71
2022/12/19 10:36:00;;;;;;;39.03;24.67;;;;;;;41.47;26.72;100987.75;4972516;28;20489;-70
2022/12/19 10:38:49;;;;;;;30.77;19.23;;;;;;;42.05;25.80;100993.50;4972737;28;20461;-71
2022/12/19 10:41:23;;;;;;;30.57;18.00;;;;;;;42.43;25.48;100990.69;4934394;29;20925;-73
2022/12/19 10:44:05;;;;;;;34.20;19.00;;;;;;;42.13;25.39;100984.47;4934301;29;20455;-72
2022/12/19 10:46:44;;;;;;;33.27;20.90;;;;;;;42.09;24.89;100980.81;4934399;29;20427;-73
2022/12/19 10:49:17;;;;;;;39.30;20.77;;;;;;;42.35;23.68;100973.25;4946023;28;20402;-71
2022/12/19 10:51:57;;;;;;;35.73;19.90;;;;;;;42.62;24.66;100969.19;4974360;28;20403;-73
2022/12/19 10:54:44;;;;;;;40.23;20.43;;;;;;;42.13;25.67;100963.47;4972681;28;20469;-73
2022/12/19 10:57:28;;;;;;;38.37;21.77;;;;;;;42.70;25.71;100958.50;4988291;28;20807;-71
2022/12/19 10:59:58;;;;;;;39.83;21.60;;;;;;;42.26;26.25;100958.91;4960328;28;20435;-70
2022/12/19 11:02:46;;;;;;;38.93;20.70;;;;;;;42.46;25.37;100956.47;4954811;28;20404;-71
2022/12/19 11:05:24;;;;;;;31.53;19.87;;;;;;;41.20;26.67;100950.88;4953276;29;20423;-71
2022/12/19 11:08:12;;;;;;;36.33;19.37;;;;;;;41.22;26.93;100932.28;4953272;29;20799;-71
2022/12/19 11:10:44;;;;;;;44.03;21.33;;;;;;;41.84;26.79;100937.09;4969500;28;20871;-72
2022/12/19 11:13:19;;;;;;;42.80;21.13;;;;;;;41.88;25.90;100937.22;4973715;28;20494;-75
2022/12/19 11:15:59;;;;;;;40.53;18.60;;;;;;;42.12;25.79;100933.84;4972474;28;20425;-71
2022/12/19 11:18:39;;;;;;;50.50;20.60;;;;;;;42.54;24.80;100928.31;4960834;28;20478;-71
2022/12/19 11:21:26;;;;;;;35.40;18.50;;;;;;;41.55;25.04;100924.25;4967165;28;20426;-71
2022/12/19 11:23:58;;;;;;;27.83;16.23;;;;;;;41.84;22.70;100925.38;4962568;28;20442;-73
2022/12/19 11:26:30;;;;;;;38.73;19.93;;;;;;;42.47;22.19;100917.16;4953493;28;20450;-73
2022/12/19 11:29:02;;;;;;;30.77;19.70;;;;;;;42.82;21.68;100912.94;4972255;28;20422;-71
2022/12/19 11:31:29;;;;;;;30.70;16.83;;;;;;;42.93;22.16;100908.66;4971765;28;20452;-71
2022/12/19 11:34:06;;;;;;;23.53;16.57;;;;;;;42.32;22.89;100904.97;4952983;29;20422;-70